sensor_id;sensor_type;location;lat;lon;timestamp;temperature;humidity
32446;DHT22;18899;50.748;7.102;2022-09-17T00:01:07;11.00;99.90
32446;DHT22;18899;50.748;7.102;2022-09-17T00:03:33;11.10;99.90
32446;DHT22;18899;50.748;7.102;2022-09-17T00:08:31;11.10;99.90
32446;DHT22;18899;50.748;7.102;2022-09-17T00:10:57;11.30;99.90
32446;DHT22;18899;50.748;7.102;2022-09-17T00:13:22;11.40;99.90
32446;DHT22;18899;50.748;7.102;2022-09-17T00:15:48;11.40;99.90
32446;DHT22;18899;50.748;7.102;2022-09-17T00:18:15;11.40;99.90
32446;DHT22;18899;50.748;7.102;2022-09-17T00:20:45;11.40;99.90
32446;DHT22;18899;50.748;7.102;2022-09-17T00:23:12;11.40;99.90
32446;DHT22;18899;50.748;7.102;2022-09-17T00:25:41;11.50;99.90
32446;DHT22;18899;50.748;7.102;2022-09-17T00:28:06;11.40;99.90
32446;DHT22;18899;50.748;7.102;2022-09-17T00:30:32;11.40;99.90
32446;DHT22;18899;50.748;7.102;2022-09-17T00:32:58;11.40;99.90
32446;DHT22;18899;50.748;7.102;2022-09-17T00:35:24;11.40;99.90
32446;DHT22;18899;50.748;7.102;2022-09-17T00:37:50;11.40;99.90
32446;DHT22;18899;50.748;7.102;2022-09-17T00:40:17;11.40;99.90
32446;DHT22;18899;50.748;7.102;2022-09-17T00:42:43;11.40;99.90
32446;DHT22;18899;50.748;7.102;2022-09-17T00:45:10;11.50;99.90
32446;DHT22;18899;50.748;7.102;2022-09-17T00:47:46;11.70;99.90
32446;DHT22;18899;50.748;7.102;2022-09-17T00:50:25;11.60;99.90
32446;DHT22;18899;50.748;7.102;2022-09-17T00:53:05;11.50;99.90
32446;DHT22;18899;50.748;7.102;2022-09-17T00:55:44;11.60;99.90
32446;DHT22;18899;50.748;7.102;2022-09-17T00:58:12;11.70;99.90
32446;DHT22;18899;50.748;7.102;2022-09-17T01:00:39;11.70;99.90
32446;DHT22;18899;50.748;7.102;2022-09-17T01:03:05;11.70;99.90
32446;DHT22;18899;50.748;7.102;2022-09-17T01:05:43;11.90;99.90
32446;DHT22;18899;50.748;7.102;2022-09-17T01:08:15;11.80;99.90
32446;DHT22;18899;50.748;7.102;2022-09-17T01:13:51;11.60;99.90
32446;DHT22;18899;50.748;7.102;2022-09-17T01:19:34;11.70;99.90
32446;DHT22;18899;50.748;7.102;2022-09-17T01:22:10;11.70;99.90
32446;DHT22;18899;50.748;7.102;2022-09-17T01:24:46;11.70;99.90
32446;DHT22;18899;50.748;7.102;2022-09-17T01:30:17;11.70;99.90
32446;DHT22;18899;50.748;7.102;2022-09-17T01:36:21;11.60;99.90
32446;DHT22;18899;50.748;7.102;2022-09-17T01:39:02;11.50;99.90
32446;DHT22;18899;50.748;7.102;2022-09-17T01:43:54;11.60;99.90
32446;DHT22;18899;50.748;7.102;2022-09-17T01:46:29;11.60;99.90
32446;DHT22;18899;50.748;7.102;2022-09-17T01:48:59;11.70;99.90
32446;DHT22;18899;50.748;7.102;2022-09-17T01:51:29;11.70;99.90
32446;DHT22;18899;50.748;7.102;2022-09-17T01:54:06;11.80;99.90
32446;DHT22;18899;50.748;7.102;2022-09-17T01:56:41;11.90;99.90
32446;DHT22;18899;50.748;7.102;2022-09-17T01:59:33;11.80;99.90
32446;DHT22;18899;50.748;7.102;2022-09-17T02:02:35;11.70;99.90
32446;DHT22;18899;50.748;7.102;2022-09-17T02:05:10;11.70;99.90
32446;DHT22;18899;50.748;7.102;2022-09-17T02:07:42;11.70;99.90
32446;DHT22;18899;50.748;7.102;2022-09-17T02:10:14;11.70;99.90
32446;DHT22;18899;50.748;7.102;2022-09-17T02:13:08;11.60;99.90
32446;DHT22;18899;50.748;7.102;2022-09-17T02:15:41;11.80;99.90
32446;DHT22;18899;50.748;7.102;2022-09-17T02:21:01;11.80;99.90
32446;DHT22;18899;50.748;7.102;2022-09-17T02:23:34;11.70;99.90
32446;DHT22;18899;50.748;7.102;2022-09-17T02:26:09;11.70;99.90
32446;DHT22;18899;50.748;7.102;2022-09-17T02:28:41;11.90;99.90
32446;DHT22;18899;50.748;7.102;2022-09-17T02:31:08;12.00;99.90
32446;DHT22;18899;50.748;7.102;2022-09-17T02:33:34;12.00;99.90
32446;DHT22;18899;50.748;7.102;2022-09-17T02:36:01;11.80;99.90
32446;DHT22;18899;50.748;7.102;2022-09-17T02:38:29;11.70;99.90
32446;DHT22;18899;50.748;7.102;2022-09-17T02:41:12;11.60;99.90
32446;DHT22;18899;50.748;7.102;2022-09-17T02:43:59;11.50;99.90
32446;DHT22;18899;50.748;7.102;2022-09-17T02:49:29;11.60;99.90
32446;DHT22;18899;50.748;7.102;2022-09-17T02:57:32;11.80;99.90
32446;DHT22;18899;50.748;7.102;2022-09-17T03:00:12;11.70;99.90
32446;DHT22;18899;50.748;7.102;2022-09-17T03:05:30;11.50;99.90
32446;DHT22;18899;50.748;7.102;2022-09-17T03:07:58;11.30;99.90
32446;DHT22;18899;50.748;7.102;2022-09-17T03:10:24;11.30;99.90
32446;DHT22;18899;50.748;7.102;2022-09-17T03:12:52;11.30;99.90
32446;DHT22;18899;50.748;7.102;2022-09-17T03:15:18;11.50;99.90
32446;DHT22;18899;50.748;7.102;2022-09-17T03:17:43;11.40;99.90
32446;DHT22;18899;50.748;7.102;2022-09-17T03:20:09;11.40;99.90
32446;DHT22;18899;50.748;7.102;2022-09-17T03:22:35;11.50;99.90
32446;DHT22;18899;50.748;7.102;2022-09-17T03:25:00;11.60;99.90
32446;DHT22;18899;50.748;7.102;2022-09-17T03:27:26;11.70;99.90
32446;DHT22;18899;50.748;7.102;2022-09-17T03:29:51;11.70;99.90
32446;DHT22;18899;50.748;7.102;2022-09-17T03:32:17;11.80;99.90
32446;DHT22;18899;50.748;7.102;2022-09-17T03:34:42;11.70;99.90
32446;DHT22;18899;50.748;7.102;2022-09-17T03:37:08;11.80;99.90
32446;DHT22;18899;50.748;7.102;2022-09-17T03:39:33;11.80;99.90
32446;DHT22;18899;50.748;7.102;2022-09-17T03:41:59;11.80;99.90
32446;DHT22;18899;50.748;7.102;2022-09-17T03:44:25;11.90;99.90
32446;DHT22;18899;50.748;7.102;2022-09-17T03:46:50;11.90;99.90
32446;DHT22;18899;50.748;7.102;2022-09-17T03:49:16;11.90;99.90
32446;DHT22;18899;50.748;7.102;2022-09-17T03:51:41;12.00;99.90
32446;DHT22;18899;50.748;7.102;2022-09-17T03:54:07;12.00;99.90
32446;DHT22;18899;50.748;7.102;2022-09-17T03:56:33;11.90;99.90
32446;DHT22;18899;50.748;7.102;2022-09-17T03:58:59;11.90;99.90
32446;DHT22;18899;50.748;7.102;2022-09-17T04:01:26;12.00;99.90
32446;DHT22;18899;50.748;7.102;2022-09-17T04:03:52;11.90;99.90
32446;DHT22;18899;50.748;7.102;2022-09-17T04:06:18;11.90;99.90
32446;DHT22;18899;50.748;7.102;2022-09-17T04:08:44;11.90;99.90
32446;DHT22;18899;50.748;7.102;2022-09-17T04:11:09;11.80;99.90
32446;DHT22;18899;50.748;7.102;2022-09-17T04:13:35;11.60;99.90
32446;DHT22;18899;50.748;7.102;2022-09-17T04:16:02;11.60;99.90
32446;DHT22;18899;50.748;7.102;2022-09-17T04:18:27;11.60;99.90
32446;DHT22;18899;50.748;7.102;2022-09-17T04:20:53;11.70;99.90
32446;DHT22;18899;50.748;7.102;2022-09-17T04:23:19;11.70;99.90
32446;DHT22;18899;50.748;7.102;2022-09-17T04:25:44;11.80;99.90
32446;DHT22;18899;50.748;7.102;2022-09-17T04:28:10;11.90;99.90
32446;DHT22;18899;50.748;7.102;2022-09-17T04:30:36;11.80;99.90
32446;DHT22;18899;50.748;7.102;2022-09-17T04:33:02;11.80;99.90
32446;DHT22;18899;50.748;7.102;2022-09-17T04:35:28;11.80;99.90
32446;DHT22;18899;50.748;7.102;2022-09-17T04:37:57;11.90;99.90
32446;DHT22;18899;50.748;7.102;2022-09-17T04:40:24;12.00;99.90
32446;DHT22;18899;50.748;7.102;2022-09-17T04:42:54;12.20;99.90
32446;DHT22;18899;50.748;7.102;2022-09-17T04:45:20;12.20;99.90
32446;DHT22;18899;50.748;7.102;2022-09-17T04:47:46;12.00;99.90
32446;DHT22;18899;50.748;7.102;2022-09-17T04:50:11;11.90;99.90
32446;DHT22;18899;50.748;7.102;2022-09-17T04:52:41;11.90;99.90
32446;DHT22;18899;50.748;7.102;2022-09-17T04:55:07;12.00;99.90
32446;DHT22;18899;50.748;7.102;2022-09-17T04:57:33;11.80;99.90
32446;DHT22;18899;50.748;7.102;2022-09-17T04:59:59;11.90;99.90
32446;DHT22;18899;50.748;7.102;2022-09-17T05:02:24;11.90;99.90
32446;DHT22;18899;50.748;7.102;2022-09-17T05:04:50;11.90;99.90
32446;DHT22;18899;50.748;7.102;2022-09-17T05:07:15;11.80;99.90
32446;DHT22;18899;50.748;7.102;2022-09-17T05:09:41;11.70;99.90
32446;DHT22;18899;50.748;7.102;2022-09-17T05:12:07;11.80;99.90
32446;DHT22;18899;50.748;7.102;2022-09-17T05:14:32;11.80;99.90
32446;DHT22;18899;50.748;7.102;2022-09-17T05:16:58;11.80;99.90
32446;DHT22;18899;50.748;7.102;2022-09-17T05:19:23;11.60;99.90
32446;DHT22;18899;50.748;7.102;2022-09-17T05:21:49;11.70;99.90
32446;DHT22;18899;50.748;7.102;2022-09-17T05:24:14;11.60;99.90
32446;DHT22;18899;50.748;7.102;2022-09-17T05:26:40;11.50;99.90
32446;DHT22;18899;50.748;7.102;2022-09-17T05:29:05;11.70;99.90
32446;DHT22;18899;50.748;7.102;2022-09-17T05:31:31;11.70;99.90
32446;DHT22;18899;50.748;7.102;2022-09-17T05:33:57;11.80;99.90
32446;DHT22;18899;50.748;7.102;2022-09-17T05:36:23;11.80;99.90
32446;DHT22;18899;50.748;7.102;2022-09-17T05:38:49;11.70;99.90
32446;DHT22;18899;50.748;7.102;2022-09-17T05:41:15;11.70;99.90
32446;DHT22;18899;50.748;7.102;2022-09-17T05:43:42;11.80;99.90
32446;DHT22;18899;50.748;7.102;2022-09-17T05:46:09;11.90;99.90
32446;DHT22;18899;50.748;7.102;2022-09-17T05:48:35;11.90;99.90
32446;DHT22;18899;50.748;7.102;2022-09-17T05:51:01;12.00;99.90
32446;DHT22;18899;50.748;7.102;2022-09-17T05:53:27;12.00;99.90
32446;DHT22;18899;50.748;7.102;2022-09-17T05:55:57;12.20;99.90
32446;DHT22;18899;50.748;7.102;2022-09-17T05:58:23;12.40;99.90
32446;DHT22;18899;50.748;7.102;2022-09-17T06:00:48;12.30;99.90
32446;DHT22;18899;50.748;7.102;2022-09-17T06:03:16;12.40;99.90
32446;DHT22;18899;50.748;7.102;2022-09-17T06:05:43;12.30;99.90
32446;DHT22;18899;50.748;7.102;2022-09-17T06:08:16;12.40;99.90
32446;DHT22;18899;50.748;7.102;2022-09-17T06:10:41;12.30;99.90
32446;DHT22;18899;50.748;7.102;2022-09-17T06:13:07;12.30;99.90
32446;DHT22;18899;50.748;7.102;2022-09-17T06:15:33;12.70;99.90
32446;DHT22;18899;50.748;7.102;2022-09-17T06:17:58;13.00;99.90
32446;DHT22;18899;50.748;7.102;2022-09-17T06:20:24;13.10;99.90
32446;DHT22;18899;50.748;7.102;2022-09-17T06:22:55;13.40;99.90
32446;DHT22;18899;50.748;7.102;2022-09-17T06:25:20;13.70;99.90
32446;DHT22;18899;50.748;7.102;2022-09-17T06:27:46;13.90;99.90
32446;DHT22;18899;50.748;7.102;2022-09-17T06:30:11;14.20;99.90
32446;DHT22;18899;50.748;7.102;2022-09-17T06:32:37;14.50;99.90
32446;DHT22;18899;50.748;7.102;2022-09-17T06:35:02;14.70;99.90
32446;DHT22;18899;50.748;7.102;2022-09-17T06:37:30;14.80;99.90
32446;DHT22;18899;50.748;7.102;2022-09-17T06:39:55;14.70;99.90
32446;DHT22;18899;50.748;7.102;2022-09-17T06:42:21;14.80;99.90
32446;DHT22;18899;50.748;7.102;2022-09-17T06:44:47;15.20;99.90
32446;DHT22;18899;50.748;7.102;2022-09-17T06:47:13;16.40;99.90
32446;DHT22;18899;50.748;7.102;2022-09-17T06:49:39;17.10;99.90
32446;DHT22;18899;50.748;7.102;2022-09-17T06:52:04;17.20;99.90
32446;DHT22;18899;50.748;7.102;2022-09-17T06:54:30;18.00;99.90
32446;DHT22;18899;50.748;7.102;2022-09-17T06:56:55;19.20;99.90
32446;DHT22;18899;50.748;7.102;2022-09-17T06:59:21;19.80;98.10
32446;DHT22;18899;50.748;7.102;2022-09-17T07:01:47;20.00;95.80
32446;DHT22;18899;50.748;7.102;2022-09-17T07:04:12;20.50;92.60
32446;DHT22;18899;50.748;7.102;2022-09-17T07:06:38;20.60;91.00
32446;DHT22;18899;50.748;7.102;2022-09-17T07:09:04;20.30;90.40
32446;DHT22;18899;50.748;7.102;2022-09-17T07:11:31;20.20;90.20
32446;DHT22;18899;50.748;7.102;2022-09-17T07:13:57;19.60;91.30
32446;DHT22;18899;50.748;7.102;2022-09-17T07:16:23;18.80;93.60
32446;DHT22;18899;50.748;7.102;2022-09-17T07:18:49;18.30;95.40
32446;DHT22;18899;50.748;7.102;2022-09-17T07:21:14;17.60;97.10
32446;DHT22;18899;50.748;7.102;2022-09-17T07:23:40;17.20;99.90
32446;DHT22;18899;50.748;7.102;2022-09-17T07:26:11;17.20;99.90
32446;DHT22;18899;50.748;7.102;2022-09-17T07:28:38;16.60;99.90
32446;DHT22;18899;50.748;7.102;2022-09-17T07:31:04;16.60;99.90
32446;DHT22;18899;50.748;7.102;2022-09-17T07:33:30;16.70;99.90
32446;DHT22;18899;50.748;7.102;2022-09-17T07:35:58;16.40;99.90
32446;DHT22;18899;50.748;7.102;2022-09-17T07:38:26;16.30;99.90
32446;DHT22;18899;50.748;7.102;2022-09-17T07:40:54;16.30;99.90
32446;DHT22;18899;50.748;7.102;2022-09-17T07:43:20;16.30;99.90
32446;DHT22;18899;50.748;7.102;2022-09-17T07:45:45;16.10;99.90
32446;DHT22;18899;50.748;7.102;2022-09-17T07:48:11;16.10;99.90
32446;DHT22;18899;50.748;7.102;2022-09-17T07:50:37;15.90;99.90
32446;DHT22;18899;50.748;7.102;2022-09-17T07:53:02;15.70;99.90
32446;DHT22;18899;50.748;7.102;2022-09-17T07:55:28;15.40;99.90
32446;DHT22;18899;50.748;7.102;2022-09-17T07:57:54;15.30;99.90
32446;DHT22;18899;50.748;7.102;2022-09-17T08:00:20;15.40;99.90
32446;DHT22;18899;50.748;7.102;2022-09-17T08:02:54;15.40;99.90
32446;DHT22;18899;50.748;7.102;2022-09-17T08:05:20;15.40;99.90
32446;DHT22;18899;50.748;7.102;2022-09-17T08:07:54;15.70;99.90
32446;DHT22;18899;50.748;7.102;2022-09-17T08:10:21;16.10;99.90
32446;DHT22;18899;50.748;7.102;2022-09-17T08:12:48;16.70;99.90
32446;DHT22;18899;50.748;7.102;2022-09-17T08:15:15;17.10;99.90
32446;DHT22;18899;50.748;7.102;2022-09-17T08:17:45;17.30;99.90
32446;DHT22;18899;50.748;7.102;2022-09-17T08:20:11;17.60;99.90
32446;DHT22;18899;50.748;7.102;2022-09-17T08:22:37;17.70;99.90
32446;DHT22;18899;50.748;7.102;2022-09-17T08:25:04;17.90;99.90
32446;DHT22;18899;50.748;7.102;2022-09-17T08:27:30;18.30;99.90
32446;DHT22;18899;50.748;7.102;2022-09-17T08:29:56;18.50;99.90
32446;DHT22;18899;50.748;7.102;2022-09-17T08:32:22;18.80;99.90
32446;DHT22;18899;50.748;7.102;2022-09-17T08:34:47;18.80;99.90
32446;DHT22;18899;50.748;7.102;2022-09-17T08:37:13;19.50;96.20
32446;DHT22;18899;50.748;7.102;2022-09-17T08:39:38;20.40;92.90
32446;DHT22;18899;50.748;7.102;2022-09-17T08:42:26;21.00;87.40
32446;DHT22;18899;50.748;7.102;2022-09-17T08:44:52;22.00;81.00
32446;DHT22;18899;50.748;7.102;2022-09-17T08:47:33;23.00;76.00
32446;DHT22;18899;50.748;7.102;2022-09-17T08:50:03;23.20;72.30
32446;DHT22;18899;50.748;7.102;2022-09-17T09:01:18;21.90;70.00
32446;DHT22;18899;50.748;7.102;2022-09-17T09:04:13;21.70;72.10
32446;DHT22;18899;50.748;7.102;2022-09-17T09:06:54;22.50;70.60
32446;DHT22;18899;50.748;7.102;2022-09-17T09:09:24;22.40;70.50
32446;DHT22;18899;50.748;7.102;2022-09-17T09:12:01;22.40;67.90
32446;DHT22;18899;50.748;7.102;2022-09-17T09:14:32;22.70;69.00
32446;DHT22;18899;50.748;7.102;2022-09-17T09:17:05;24.20;62.40
32446;DHT22;18899;50.748;7.102;2022-09-17T09:19:40;25.20;60.00
32446;DHT22;18899;50.748;7.102;2022-09-17T09:25:11;27.10;53.90
32446;DHT22;18899;50.748;7.102;2022-09-17T09:27:44;27.00;53.60
32446;DHT22;18899;50.748;7.102;2022-09-17T09:30:14;27.00;53.40
32446;DHT22;18899;50.748;7.102;2022-09-17T09:33:12;26.80;53.10
32446;DHT22;18899;50.748;7.102;2022-09-17T09:35:41;26.20;53.80
32446;DHT22;18899;50.748;7.102;2022-09-17T09:38:39;26.20;53.60
32446;DHT22;18899;50.748;7.102;2022-09-17T09:41:09;26.40;53.60
32446;DHT22;18899;50.748;7.102;2022-09-17T09:43:46;24.30;56.80
32446;DHT22;18899;50.748;7.102;2022-09-17T09:52:01;24.40;56.80
32446;DHT22;18899;50.748;7.102;2022-09-17T09:57:45;25.90;52.70
32446;DHT22;18899;50.748;7.102;2022-09-17T10:00:39;25.70;52.50
32446;DHT22;18899;50.748;7.102;2022-09-17T10:03:26;24.20;56.70
32446;DHT22;18899;50.748;7.102;2022-09-17T10:05:56;23.20;58.30
32446;DHT22;18899;50.748;7.102;2022-09-17T10:08:23;22.30;60.10
32446;DHT22;18899;50.748;7.102;2022-09-17T10:11:00;22.00;61.10
32446;DHT22;18899;50.748;7.102;2022-09-17T10:13:32;21.70;62.10
32446;DHT22;18899;50.748;7.102;2022-09-17T10:16:23;21.10;64.00
32446;DHT22;18899;50.748;7.102;2022-09-17T10:19:11;20.20;66.20
32446;DHT22;18899;50.748;7.102;2022-09-17T10:21:41;19.70;68.90
32446;DHT22;18899;50.748;7.102;2022-09-17T10:24:29;20.30;66.90
32446;DHT22;18899;50.748;7.102;2022-09-17T10:27:14;21.40;64.50
32446;DHT22;18899;50.748;7.102;2022-09-17T10:29:46;21.90;61.70
32446;DHT22;18899;50.748;7.102;2022-09-17T10:32:18;21.80;63.80
32446;DHT22;18899;50.748;7.102;2022-09-17T10:35:00;21.20;63.50
32446;DHT22;18899;50.748;7.102;2022-09-17T10:37:48;20.40;66.10
32446;DHT22;18899;50.748;7.102;2022-09-17T10:42:45;20.10;66.30
32446;DHT22;18899;50.748;7.102;2022-09-17T10:45:30;19.90;66.70
32446;DHT22;18899;50.748;7.102;2022-09-17T10:47:58;19.30;68.10
32446;DHT22;18899;50.748;7.102;2022-09-17T10:50:27;19.10;70.70
32446;DHT22;18899;50.748;7.102;2022-09-17T10:52:59;19.20;71.70
32446;DHT22;18899;50.748;7.102;2022-09-17T10:55:29;19.30;69.00
32446;DHT22;18899;50.748;7.102;2022-09-17T11:08:22;18.20;75.40
32446;DHT22;18899;50.748;7.102;2022-09-17T11:11:10;17.90;78.30
32446;DHT22;18899;50.748;7.102;2022-09-17T11:13:43;17.90;79.20
32446;DHT22;18899;50.748;7.102;2022-09-17T11:16:39;18.00;81.80
32446;DHT22;18899;50.748;7.102;2022-09-17T11:21:52;18.10;84.30
32446;DHT22;18899;50.748;7.102;2022-09-17T11:24:55;18.30;81.70
32446;DHT22;18899;50.748;7.102;2022-09-17T11:30:22;18.40;81.30
32446;DHT22;18899;50.748;7.102;2022-09-17T11:33:10;18.30;80.00
32446;DHT22;18899;50.748;7.102;2022-09-17T11:35:47;18.10;80.60
32446;DHT22;18899;50.748;7.102;2022-09-17T11:41:34;17.70;82.80
32446;DHT22;18899;50.748;7.102;2022-09-17T11:44:29;17.70;82.60
32446;DHT22;18899;50.748;7.102;2022-09-17T11:47:07;17.50;79.10
32446;DHT22;18899;50.748;7.102;2022-09-17T11:49:37;17.70;77.70
32446;DHT22;18899;50.748;7.102;2022-09-17T11:52:12;17.80;78.50
32446;DHT22;18899;50.748;7.102;2022-09-17T11:57:21;17.70;78.90
32446;DHT22;18899;50.748;7.102;2022-09-17T12:02:26;17.90;78.60
32446;DHT22;18899;50.748;7.102;2022-09-17T12:05:44;18.10;77.90
32446;DHT22;18899;50.748;7.102;2022-09-17T12:08:14;18.20;77.00
32446;DHT22;18899;50.748;7.102;2022-09-17T12:13:50;17.50;84.90
32446;DHT22;18899;50.748;7.102;2022-09-17T12:16:42;16.60;99.90
32446;DHT22;18899;50.748;7.102;2022-09-17T12:19:41;15.90;99.90
32446;DHT22;18899;50.748;7.102;2022-09-17T12:22:16;15.60;99.90
32446;DHT22;18899;50.748;7.102;2022-09-17T12:24:45;15.60;99.90
32446;DHT22;18899;50.748;7.102;2022-09-17T12:30:15;15.80;99.90
32446;DHT22;18899;50.748;7.102;2022-09-17T12:33:33;16.00;99.90
32446;DHT22;18899;50.748;7.102;2022-09-17T12:36:11;15.90;99.90
32446;DHT22;18899;50.748;7.102;2022-09-17T12:39:13;16.20;99.90
32446;DHT22;18899;50.748;7.102;2022-09-17T12:42:06;16.30;99.90
32446;DHT22;18899;50.748;7.102;2022-09-17T12:44:54;16.20;99.90
32446;DHT22;18899;50.748;7.102;2022-09-17T12:50:22;16.10;99.90
32446;DHT22;18899;50.748;7.102;2022-09-17T13:00:43;16.40;99.90
32446;DHT22;18899;50.748;7.102;2022-09-17T13:03:28;16.70;99.90
32446;DHT22;18899;50.748;7.102;2022-09-17T13:11:51;17.30;99.90
32446;DHT22;18899;50.748;7.102;2022-09-17T13:17:10;17.50;99.90
32446;DHT22;18899;50.748;7.102;2022-09-17T13:22:49;18.00;99.90
32446;DHT22;18899;50.748;7.102;2022-09-17T13:25:18;18.10;99.90
32446;DHT22;18899;50.748;7.102;2022-09-17T13:27:44;18.10;99.90
32446;DHT22;18899;50.748;7.102;2022-09-17T13:30:12;18.00;99.90
32446;DHT22;18899;50.748;7.102;2022-09-17T13:37:31;17.70;99.90
32446;DHT22;18899;50.748;7.102;2022-09-17T13:39:57;17.90;99.90
32446;DHT22;18899;50.748;7.102;2022-09-17T13:42:26;18.00;99.90
32446;DHT22;18899;50.748;7.102;2022-09-17T13:47:54;18.40;99.40
32446;DHT22;18899;50.748;7.102;2022-09-17T13:50:29;18.60;95.70
32446;DHT22;18899;50.748;7.102;2022-09-17T13:53:04;18.40;97.50
32446;DHT22;18899;50.748;7.102;2022-09-17T13:58:00;15.90;99.90
32446;DHT22;18899;50.748;7.102;2022-09-17T14:00:54;15.10;99.90
32446;DHT22;18899;50.748;7.102;2022-09-17T14:19:27;13.10;99.90
32446;DHT22;18899;50.748;7.102;2022-09-17T14:24:25;13.40;99.90
32446;DHT22;18899;50.748;7.102;2022-09-17T14:32:43;14.00;99.90
32446;DHT22;18899;50.748;7.102;2022-09-17T14:35:15;14.20;99.90
32446;DHT22;18899;50.748;7.102;2022-09-17T14:37:42;14.50;99.90
32446;DHT22;18899;50.748;7.102;2022-09-17T14:40:10;14.40;99.90
32446;DHT22;18899;50.748;7.102;2022-09-17T14:42:39;14.30;99.90
32446;DHT22;18899;50.748;7.102;2022-09-17T14:45:53;14.30;99.90
32446;DHT22;18899;50.748;7.102;2022-09-17T14:48:31;14.20;99.90
32446;DHT22;18899;50.748;7.102;2022-09-17T14:51:23;14.20;99.90
32446;DHT22;18899;50.748;7.102;2022-09-17T14:56:31;14.60;99.90
32446;DHT22;18899;50.748;7.102;2022-09-17T14:58:57;14.80;99.90
32446;DHT22;18899;50.748;7.102;2022-09-17T15:01:28;15.00;99.90
32446;DHT22;18899;50.748;7.102;2022-09-17T15:06:42;15.20;99.90
32446;DHT22;18899;50.748;7.102;2022-09-17T15:09:15;15.10;99.90
32446;DHT22;18899;50.748;7.102;2022-09-17T15:11:42;15.20;99.90
32446;DHT22;18899;50.748;7.102;2022-09-17T15:14:19;15.00;99.90
32446;DHT22;18899;50.748;7.102;2022-09-17T15:16:50;14.60;99.90
32446;DHT22;18899;50.748;7.102;2022-09-17T15:19:30;13.90;99.90
32446;DHT22;18899;50.748;7.102;2022-09-17T15:21:58;13.20;99.90
32446;DHT22;18899;50.748;7.102;2022-09-17T15:27:11;13.30;99.90
32446;DHT22;18899;50.748;7.102;2022-09-17T15:29:41;13.40;99.90
32446;DHT22;18899;50.748;7.102;2022-09-17T15:32:11;13.40;99.90
32446;DHT22;18899;50.748;7.102;2022-09-17T15:34:37;13.10;99.90
32446;DHT22;18899;50.748;7.102;2022-09-17T15:37:17;13.10;99.90
32446;DHT22;18899;50.748;7.102;2022-09-17T15:39:47;13.10;99.90
32446;DHT22;18899;50.748;7.102;2022-09-17T15:42:24;12.90;99.90
32446;DHT22;18899;50.748;7.102;2022-09-17T15:44:50;12.80;99.90
32446;DHT22;18899;50.748;7.102;2022-09-17T15:50:22;12.70;99.90
32446;DHT22;18899;50.748;7.102;2022-09-17T15:52:48;12.70;99.90
32446;DHT22;18899;50.748;7.102;2022-09-17T15:55:43;12.80;99.90
32446;DHT22;18899;50.748;7.102;2022-09-17T15:58:49;12.90;99.90
32446;DHT22;18899;50.748;7.102;2022-09-17T16:11:25;13.10;99.90
32446;DHT22;18899;50.748;7.102;2022-09-17T16:13:52;13.10;99.90
32446;DHT22;18899;50.748;7.102;2022-09-17T16:16:20;13.10;99.90
32446;DHT22;18899;50.748;7.102;2022-09-17T16:18:47;13.10;99.90
32446;DHT22;18899;50.748;7.102;2022-09-17T16:21:14;13.10;99.90
32446;DHT22;18899;50.748;7.102;2022-09-17T16:23:40;13.00;99.90
32446;DHT22;18899;50.748;7.102;2022-09-17T16:26:09;12.80;99.90
32446;DHT22;18899;50.748;7.102;2022-09-17T16:28:37;12.70;99.90
32446;DHT22;18899;50.748;7.102;2022-09-17T16:31:04;12.60;99.90
32446;DHT22;18899;50.748;7.102;2022-09-17T16:33:30;12.60;99.90
32446;DHT22;18899;50.748;7.102;2022-09-17T16:35:57;12.50;99.90
32446;DHT22;18899;50.748;7.102;2022-09-17T16:38:23;12.30;99.90
32446;DHT22;18899;50.748;7.102;2022-09-17T16:40:48;12.30;99.90
32446;DHT22;18899;50.748;7.102;2022-09-17T16:43:16;12.20;99.90
32446;DHT22;18899;50.748;7.102;2022-09-17T16:45:42;12.20;99.90
32446;DHT22;18899;50.748;7.102;2022-09-17T16:48:08;12.10;99.90
32446;DHT22;18899;50.748;7.102;2022-09-17T16:50:33;12.10;99.90
32446;DHT22;18899;50.748;7.102;2022-09-17T16:53:00;12.10;99.90
32446;DHT22;18899;50.748;7.102;2022-09-17T16:55:27;12.10;99.90
32446;DHT22;18899;50.748;7.102;2022-09-17T16:57:55;12.10;99.90
32446;DHT22;18899;50.748;7.102;2022-09-17T17:00:21;12.10;99.90
32446;DHT22;18899;50.748;7.102;2022-09-17T17:02:52;12.20;99.90
32446;DHT22;18899;50.748;7.102;2022-09-17T17:05:18;12.20;99.90
32446;DHT22;18899;50.748;7.102;2022-09-17T17:07:44;12.20;99.90
32446;DHT22;18899;50.748;7.102;2022-09-17T17:10:09;12.30;99.90
32446;DHT22;18899;50.748;7.102;2022-09-17T17:12:35;12.20;99.90
32446;DHT22;18899;50.748;7.102;2022-09-17T17:15:01;12.20;99.90
32446;DHT22;18899;50.748;7.102;2022-09-17T17:17:27;12.00;99.90
32446;DHT22;18899;50.748;7.102;2022-09-17T17:19:53;12.00;99.90
32446;DHT22;18899;50.748;7.102;2022-09-17T17:22:19;12.00;99.90
32446;DHT22;18899;50.748;7.102;2022-09-17T17:24:44;12.00;99.90
32446;DHT22;18899;50.748;7.102;2022-09-17T17:27:10;12.00;99.90
32446;DHT22;18899;50.748;7.102;2022-09-17T17:29:37;11.90;99.90
32446;DHT22;18899;50.748;7.102;2022-09-17T17:32:03;12.00;99.90
32446;DHT22;18899;50.748;7.102;2022-09-17T17:34:29;12.10;99.90
32446;DHT22;18899;50.748;7.102;2022-09-17T17:36:56;12.10;99.90
32446;DHT22;18899;50.748;7.102;2022-09-17T17:39:22;12.10;99.90
32446;DHT22;18899;50.748;7.102;2022-09-17T17:41:47;12.10;99.90
32446;DHT22;18899;50.748;7.102;2022-09-17T17:44:13;12.00;99.90
32446;DHT22;18899;50.748;7.102;2022-09-17T17:46:39;12.00;99.90
32446;DHT22;18899;50.748;7.102;2022-09-17T17:49:05;12.00;99.90
32446;DHT22;18899;50.748;7.102;2022-09-17T17:51:31;12.00;99.90
32446;DHT22;18899;50.748;7.102;2022-09-17T17:53:57;11.90;99.90
32446;DHT22;18899;50.748;7.102;2022-09-17T17:56:22;11.90;99.90
32446;DHT22;18899;50.748;7.102;2022-09-17T17:58:55;11.80;99.90
32446;DHT22;18899;50.748;7.102;2022-09-17T18:01:24;11.70;99.90
32446;DHT22;18899;50.748;7.102;2022-09-17T18:03:55;11.70;99.90
32446;DHT22;18899;50.748;7.102;2022-09-17T18:06:20;11.80;99.90
32446;DHT22;18899;50.748;7.102;2022-09-17T18:08:46;11.70;99.90
32446;DHT22;18899;50.748;7.102;2022-09-17T18:11:11;11.70;99.90
32446;DHT22;18899;50.748;7.102;2022-09-17T18:13:38;11.70;99.90
32446;DHT22;18899;50.748;7.102;2022-09-17T18:16:05;11.70;99.90
32446;DHT22;18899;50.748;7.102;2022-09-17T18:18:34;11.70;99.90
32446;DHT22;18899;50.748;7.102;2022-09-17T18:21:04;11.80;99.90
32446;DHT22;18899;50.748;7.102;2022-09-17T18:23:35;11.80;99.90
32446;DHT22;18899;50.748;7.102;2022-09-17T18:26:01;11.70;99.90
32446;DHT22;18899;50.748;7.102;2022-09-17T18:28:28;11.70;99.90
32446;DHT22;18899;50.748;7.102;2022-09-17T18:30:54;11.70;99.90
32446;DHT22;18899;50.748;7.102;2022-09-17T18:33:22;11.80;99.90
32446;DHT22;18899;50.748;7.102;2022-09-17T18:35:49;11.80;99.90